Time;durP1;ratioP1;P1;durP2;ratioP2;P2;SDS_P1;SDS_P2;PMS_P1;PMS_P2;Temp;Humidity;BMP_temperature;BMP_pressure;BME280_temperature;BME280_humidity;BME280_pressure;Samples;Min_cycle;Max_cycle;Signal;HPM_P1;HPM_P2
2021/12/27 00:00:26;;;;;;;44.83;22.88;;;-7.90;99.90;;;;;;5061177;28;20200;-42
2021/12/27 00:02:56;;;;;;;49.05;24.92;;;-7.70;99.90;;;;;;5061644;28;20207;-49
2021/12/27 00:05:24;;;;;;;43.28;23.42;;;-7.70;99.90;;;;;;5061109;28;20517;-44
2021/12/27 00:07:53;;;;;;;41.00;21.00;;;-7.80;99.90;;;;;;5060933;28;20196;-48
2021/12/27 00:10:22;;;;;;;52.28;25.15;;;-7.80;99.90;;;;;;5060545;28;20441;-45
2021/12/27 00:12:50;;;;;;;44.58;20.45;;;-7.80;99.90;;;;;;5060864;28;20237;-42
2021/12/27 00:15:18;;;;;;;54.75;23.48;;;-7.90;99.90;;;;;;5060720;28;20245;-48
2021/12/27 00:17:47;;;;;;;39.97;23.15;;;-8.00;99.90;;;;;;5060695;28;20268;-43
2021/12/27 00:20:16;;;;;;;45.40;23.40;;;-8.00;99.90;;;;;;5060398;28;20231;-45
2021/12/27 00:22:46;;;;;;;44.63;24.50;;;-8.00;99.90;;;;;;5060940;28;20425;-45
2021/12/27 00:25:14;;;;;;;44.28;21.45;;;-8.10;99.90;;;;;;5060600;28;20195;-44
2021/12/27 00:27:42;;;;;;;48.85;23.70;;;-8.10;99.90;;;;;;5060978;28;20208;-45
2021/12/27 00:30:10;;;;;;;25.77;18.60;;;-8.10;99.90;;;;;;5060413;28;20560;-49
2021/12/27 00:32:40;;;;;;;39.03;21.77;;;-8.10;99.90;;;;;;5061309;28;20196;-44
2021/12/27 00:35:08;;;;;;;39.63;21.95;;;-8.30;99.90;;;;;;5060694;28;20575;-42
2021/12/27 00:37:35;;;;;;;41.45;22.67;;;-8.20;99.90;;;;;;5060537;28;20242;-47
2021/12/27 00:40:04;;;;;;;38.13;21.98;;;-8.20;99.90;;;;;;5060635;28;20253;-45
2021/12/27 00:42:32;;;;;;;42.70;23.35;;;-8.20;99.90;;;;;;5060040;28;20246;-46
2021/12/27 00:44:59;;;;;;;40.78;22.80;;;-8.30;99.90;;;;;;5060520;28;20430;-46
2021/12/27 00:47:27;;;;;;;40.20;21.35;;;-8.20;99.90;;;;;;5060172;28;20398;-46
2021/12/27 00:49:54;;;;;;;42.08;19.90;;;-8.30;99.90;;;;;;5060246;28;20672;-47
2021/12/27 00:52:21;;;;;;;42.85;22.13;;;-8.30;99.90;;;;;;5059210;28;20203;-43
2021/12/27 00:54:48;;;;;;;49.88;23.15;;;-8.40;99.90;;;;;;5060450;28;20204;-45
2021/12/27 00:57:16;;;;;;;49.72;23.25;;;-8.30;99.90;;;;;;5059830;28;20271;-47
2021/12/27 00:59:43;;;;;;;44.25;23.75;;;-8.40;99.90;;;;;;5060039;28;20223;-48
2021/12/27 01:02:10;;;;;;;44.25;22.08;;;-8.40;99.90;;;;;;5060017;28;20235;-44
2021/12/27 01:04:37;;;;;;;43.10;21.98;;;-8.50;99.90;;;;;;5059074;28;20234;-45
2021/12/27 01:07:05;;;;;;;39.70;23.17;;;-8.40;99.90;;;;;;5059985;28;20420;-43
2021/12/27 01:10:02;;;;;;;51.83;26.30;;;-8.50;99.90;;;;;;5060125;28;20297;-44
2021/12/27 01:15:11;;;;;;;55.85;25.33;;;-8.60;99.90;;;;;;5060516;28;20203;-42
2021/12/27 01:17:42;;;;;;;40.33;21.80;;;-8.60;99.90;;;;;;5059486;28;20261;-45
2021/12/27 01:20:12;;;;;;;43.85;23.00;;;-8.60;99.90;;;;;;5060031;28;20245;-45
2021/12/27 01:22:40;;;;;;;40.58;20.60;;;-8.60;99.90;;;;;;5059940;28;20218;-44
2021/12/27 01:25:09;;;;;;;52.00;25.35;;;-8.60;99.90;;;;;;5060357;28;20242;-45
2021/12/27 01:27:37;;;;;;;31.63;17.08;;;-8.50;99.90;;;;;;5060337;28;20234;-46
2021/12/27 01:30:06;;;;;;;38.10;21.38;;;-8.70;99.90;;;;;;5060038;28;20241;-43
2021/12/27 01:32:39;;;;;;;41.10;23.83;;;-8.70;99.90;;;;;;5059963;28;20261;-48
2021/12/27 01:35:07;;;;;;;35.63;19.20;;;-8.60;99.90;;;;;;5060332;28;20200;-49
2021/12/27 01:37:34;;;;;;;42.40;23.10;;;-8.60;99.90;;;;;;5060116;28;20436;-46
2021/12/27 01:40:03;;;;;;;39.45;19.83;;;-8.60;99.90;;;;;;5059545;28;20219;-46
2021/12/27 01:42:30;;;;;;;37.53;19.85;;;-8.60;99.90;;;;;;5060406;28;20224;-47
2021/12/27 01:44:58;;;;;;;46.92;22.15;;;-8.50;99.90;;;;;;5059688;28;20203;-42
2021/12/27 01:47:28;;;;;;;33.75;20.33;;;-8.60;99.90;;;;;;5059649;28;20204;-42
2021/12/27 01:49:55;;;;;;;30.40;19.77;;;-8.60;99.90;;;;;;5059613;28;20549;-43
2021/12/27 01:52:22;;;;;;;41.17;24.73;;;-8.50;99.90;;;;;;5059975;28;20203;-45
2021/12/27 01:54:50;;;;;;;34.10;18.20;;;-8.50;99.90;;;;;;5061908;28;20203;-45
2021/12/27 01:57:18;;;;;;;42.08;22.17;;;-8.60;99.90;;;;;;5061170;28;20238;-42
2021/12/27 01:59:46;;;;;;;35.67;17.92;;;-8.50;99.90;;;;;;5059184;28;20261;-47
2021/12/27 02:02:33;;;;;;;38.55;19.70;;;-8.40;99.90;;;;;;5060092;28;20238;-42
2021/12/27 02:05:00;;;;;;;31.42;19.25;;;-8.40;99.90;;;;;;5063272;28;20271;-41
2021/12/27 02:07:27;;;;;;;60.47;21.27;;;-8.40;99.90;;;;;;5063316;28;20196;-43
2021/12/27 02:10:00;;;;;;;38.70;20.73;;;-8.50;99.90;;;;;;5063043;28;20231;-44
2021/12/27 02:12:29;;;;;;;37.83;20.75;;;-8.40;99.90;;;;;;5063408;28;20669;-46
2021/12/27 02:14:57;;;;;;;36.10;19.08;;;-8.50;99.90;;;;;;5063453;28;20199;-41
2021/12/27 02:17:26;;;;;;;38.17;21.65;;;-8.70;99.90;;;;;;5062651;28;20199;-44
2021/12/27 02:19:53;;;;;;;47.10;22.20;;;-8.60;99.90;;;;;;5063380;28;20219;-43
2021/12/27 02:22:21;;;;;;;37.83;21.25;;;-8.70;99.90;;;;;;5062865;28;20439;-42
2021/12/27 02:24:49;;;;;;;46.95;22.08;;;-8.70;99.90;;;;;;5063475;28;20199;-43
2021/12/27 02:27:16;;;;;;;37.92;20.02;;;-8.80;99.90;;;;;;5063101;28;20552;-42
2021/12/27 02:29:44;;;;;;;40.13;22.63;;;-8.80;99.90;;;;;;5062350;28;20565;-42
2021/12/27 02:32:11;;;;;;;52.55;22.83;;;-8.90;99.90;;;;;;5063916;28;20246;-42
2021/12/27 02:34:38;;;;;;;33.50;21.05;;;-8.90;99.90;;;;;;5063222;28;20246;-45
2021/12/27 02:37:05;;;;;;;39.55;21.20;;;-8.90;99.90;;;;;;5062786;28;20257;-41
2021/12/27 02:39:33;;;;;;;41.35;23.20;;;-8.80;99.90;;;;;;5062976;28;20273;-42
2021/12/27 02:42:02;;;;;;;36.08;20.15;;;-8.80;99.90;;;;;;5063210;28;20259;-41
2021/12/27 02:44:29;;;;;;;30.88;17.05;;;-8.80;99.90;;;;;;5063420;28;20204;-42
2021/12/27 02:46:56;;;;;;;39.53;21.80;;;-9.00;99.90;;;;;;5062559;28;20238;-46
2021/12/27 02:49:24;;;;;;;32.05;20.20;;;-8.90;99.90;;;;;;5062427;28;20222;-46
2021/12/27 02:51:52;;;;;;;37.35;18.70;;;-8.90;99.90;;;;;;5062627;28;20207;-44
2021/12/27 02:54:19;;;;;;;42.85;19.40;;;-8.90;99.90;;;;;;5061439;28;20261;-42
2021/12/27 02:56:48;;;;;;;49.30;20.17;;;-8.80;99.90;;;;;;5062859;28;20214;-41
2021/12/27 02:59:15;;;;;;;35.97;20.40;;;-8.90;99.90;;;;;;5062760;28;20281;-45
2021/12/27 03:01:42;;;;;;;43.10;21.63;;;-9.00;99.90;;;;;;5062589;28;20272;-43
2021/12/27 03:04:09;;;;;;;35.75;19.63;;;-9.10;99.90;;;;;;5062976;28;20227;-45
2021/12/27 03:06:37;;;;;;;37.75;19.35;;;-9.10;99.90;;;;;;5062525;28;20258;-42
2021/12/27 03:09:04;;;;;;;38.78;18.10;;;-9.10;99.90;;;;;;5061959;28;20227;-42
2021/12/27 03:11:32;;;;;;;30.40;17.20;;;-9.10;99.90;;;;;;5062069;28;20207;-45
2021/12/27 03:13:59;;;;;;;38.15;18.20;;;-9.20;99.90;;;;;;5061893;28;20195;-49
2021/12/27 03:16:26;;;;;;;35.97;20.15;;;-9.30;99.90;;;;;;5061090;28;20241;-41
2021/12/27 03:18:54;;;;;;;36.10;18.23;;;-9.10;99.90;;;;;;5061985;28;20604;-43
2021/12/27 03:21:22;;;;;;;38.45;21.10;;;-9.10;99.90;;;;;;5062317;28;20228;-43
2021/12/27 03:23:50;;;;;;;38.55;20.20;;;-9.20;99.90;;;;;;5062327;28;20196;-44
2021/12/27 03:26:18;;;;;;;33.40;18.80;;;-9.10;99.90;;;;;;5062290;28;20262;-46
2021/12/27 03:28:46;;;;;;;39.08;19.02;;;-9.00;99.90;;;;;;5062134;28;20223;-41
2021/12/27 03:31:15;;;;;;;53.42;20.83;;;-9.00;99.90;;;;;;5062049;28;20207;-45
2021/12/27 03:33:42;;;;;;;30.40;14.68;;;-9.00;99.90;;;;;;5061711;28;20270;-47
2021/12/27 03:36:10;;;;;;;33.90;18.50;;;-9.10;99.90;;;;;;5061418;28;20199;-42
2021/12/27 03:38:45;;;;;;;26.25;15.15;;;-9.00;99.90;;;;;;5061907;28;20220;-44
2021/12/27 03:41:17;;;;;;;29.27;15.90;;;-9.00;99.90;;;;;;5061668;28;20231;-43
2021/12/27 03:43:44;;;;;;;37.55;19.35;;;-9.00;99.90;;;;;;5062495;28;20199;-43
2021/12/27 03:46:11;;;;;;;27.83;16.25;;;-9.00;99.90;;;;;;5061844;28;20199;-47
2021/12/27 03:48:39;;;;;;;31.45;18.10;;;-9.00;99.90;;;;;;5062203;28;20257;-43
2021/12/27 03:51:06;;;;;;;37.60;19.98;;;-9.00;99.90;;;;;;5061719;28;20211;-47
2021/12/27 03:53:34;;;;;;;39.90;19.83;;;-9.10;99.90;;;;;;5061568;28;20218;-49
2021/12/27 03:56:03;;;;;;;34.22;18.85;;;-9.10;99.90;;;;;;5061046;28;20222;-47
2021/12/27 03:58:35;;;;;;;39.00;19.40;;;-9.00;99.90;;;;;;5061464;28;20309;-46
2021/12/27 04:01:14;;;;;;;35.88;19.90;;;-8.90;99.90;;;;;;5061035;28;20199;-44
2021/12/27 04:03:49;;;;;;;29.90;18.50;;;-9.00;99.90;;;;;;5062209;28;20195;-42
2021/12/27 04:06:17;;;;;;;42.72;19.15;;;-9.10;99.90;;;;;;5063615;28;20242;-48
2021/12/27 04:08:45;;;;;;;30.80;18.45;;;-9.10;99.90;;;;;;5064134;28;20223;-49
2021/12/27 04:11:13;;;;;;;37.90;17.45;;;-9.20;99.90;;;;;;5063311;28;20200;-46
2021/12/27 04:13:41;;;;;;;36.70;17.52;;;-9.10;99.90;;;;;;5062090;28;20206;-42
2021/12/27 04:16:08;;;;;;;32.33;19.92;;;-9.00;99.90;;;;;;5061372;28;20230;-43
2021/12/27 04:18:36;;;;;;;44.80;21.42;;;-8.90;99.90;;;;;;5060794;28;20219;-42
2021/12/27 04:21:03;;;;;;;43.83;19.98;;;-9.00;99.90;;;;;;5061039;28;20238;-43
2021/12/27 04:23:31;;;;;;;47.38;21.90;;;-8.90;99.90;;;;;;5060915;28;20206;-42
2021/12/27 04:25:58;;;;;;;36.03;18.98;;;-9.00;99.90;;;;;;5061028;28;20195;-45
2021/12/27 04:28:26;;;;;;;30.98;18.38;;;-9.00;99.90;;;;;;5060642;28;20391;-42
2021/12/27 04:30:53;;;;;;;45.50;21.95;;;-8.90;99.90;;;;;;5061389;28;20195;-48
2021/12/27 04:33:20;;;;;;;38.72;20.92;;;-8.80;99.90;;;;;;5060937;28;20548;-42
2021/12/27 04:35:47;;;;;;;35.97;21.35;;;-8.90;99.90;;;;;;5060845;28;20245;-44
2021/12/27 04:38:14;;;;;;;36.50;18.08;;;-8.90;99.90;;;;;;5059984;28;20537;-42
2021/12/27 04:40:43;;;;;;;41.88;20.70;;;-8.90;99.90;;;;;;5060490;28;20431;-42
2021/12/27 04:43:17;;;;;;;46.03;23.67;;;-8.90;99.90;;;;;;5060669;28;20235;-45
2021/12/27 04:45:46;;;;;;;43.42;23.42;;;-8.90;99.90;;;;;;5060609;28;20345;-42
2021/12/27 04:48:15;;;;;;;37.40;22.33;;;-9.00;99.90;;;;;;5060348;28;20219;-47
2021/12/27 04:50:42;;;;;;;49.53;21.75;;;-9.00;99.90;;;;;;5060455;28;20533;-47
2021/12/27 04:53:09;;;;;;;44.33;21.63;;;-8.90;99.90;;;;;;5060452;28;20245;-42
2021/12/27 04:55:37;;;;;;;47.83;24.40;;;-8.90;99.90;;;;;;5059276;28;20230;-47
2021/12/27 04:58:08;;;;;;;43.30;19.65;;;-8.90;99.90;;;;;;5059528;28;20435;-52
2021/12/27 05:00:36;;;;;;;38.75;24.75;;;-8.90;99.90;;;;;;5060972;28;20261;-45
2021/12/27 05:03:05;;;;;;;54.03;26.02;;;-8.80;99.90;;;;;;5062180;28;20223;-45
2021/12/27 05:05:32;;;;;;;49.70;27.35;;;-8.80;99.90;;;;;;5059179;28;20196;-44
2021/12/27 05:08:00;;;;;;;52.08;25.58;;;-8.90;99.90;;;;;;5060128;28;20195;-43
2021/12/27 05:10:29;;;;;;;45.88;26.30;;;-8.90;99.90;;;;;;5057204;22;20388;-89
2021/12/27 05:12:57;;;;;;;56.90;29.13;;;-9.00;99.90;;;;;;5048099;28;20210;-90
2021/12/27 05:15:24;;;;;;;44.33;27.63;;;-8.80;99.90;;;;;;5049400;28;20200;-90
2021/12/27 05:17:52;;;;;;;59.80;28.88;;;-8.90;99.90;;;;;;5047490;28;20254;-89
2021/12/27 05:20:20;;;;;;;65.30;31.30;;;-8.90;99.90;;;;;;5047448;28;20196;-90
2021/12/27 05:22:48;;;;;;;52.55;29.02;;;-8.90;99.90;;;;;;5047012;28;20224;-89
2021/12/27 05:25:18;;;;;;;49.72;26.42;;;-8.90;99.90;;;;;;5046767;28;20188;-89
2021/12/27 05:27:46;;;;;;;54.35;28.88;;;-8.90;99.90;;;;;;5046919;28;20453;-89
2021/12/27 05:30:18;;;;;;;56.17;28.50;;;-8.80;99.90;;;;;;5046966;28;20204;-89
2021/12/27 05:32:48;;;;;;;40.08;25.20;;;-8.80;99.90;;;;;;5046873;28;20227;-88
2021/12/27 05:35:16;;;;;;;56.97;26.15;;;-8.80;99.90;;;;;;5046058;28;20424;-89
2021/12/27 05:37:44;;;;;;;51.47;24.90;;;-8.70;99.90;;;;;;5048042;28;20184;-88
2021/12/27 05:40:18;;;;;;;47.83;23.98;;;-8.80;99.90;;;;;;5050596;28;20271;-89
2021/12/27 05:42:49;;;;;;;44.35;23.98;;;-8.90;99.90;;;;;;5051479;28;20227;-89
2021/12/27 05:45:18;;;;;;;40.47;21.15;;;-8.90;99.90;;;;;;5050230;28;20211;-88
2021/12/27 05:47:46;;;;;;;35.80;21.55;;;-8.90;99.90;;;;;;5050859;28;20210;-89
2021/12/27 05:50:15;;;;;;;50.13;21.85;;;-9.00;99.90;;;;;;5050500;28;20218;-90
2021/12/27 05:52:43;;;;;;;42.80;21.00;;;-9.00;99.90;;;;;;5052346;28;20299;-89
2021/12/27 05:55:11;;;;;;;44.10;23.48;;;-9.10;99.90;;;;;;5051629;28;20200;-89
2021/12/27 05:57:39;;;;;;;37.42;20.35;;;-9.10;99.90;;;;;;5053995;28;20227;-89
2021/12/27 06:00:20;;;;;;;33.58;20.42;;;-9.10;99.90;;;;;;5037368;28;20200;-89
2021/12/27 06:02:48;;;;;;;37.72;20.13;;;-9.10;99.90;;;;;;5049238;28;20230;-89
2021/12/27 06:05:17;;;;;;;40.33;18.48;;;-9.00;99.90;;;;;;5049623;28;20234;-90
2021/12/27 06:07:44;;;;;;;38.30;21.30;;;-9.10;99.90;;;;;;5050741;28;20206;-89
2021/12/27 06:10:12;;;;;;;38.63;21.83;;;-9.10;99.90;;;;;;5050853;28;20208;-89
2021/12/27 06:12:40;;;;;;;44.38;22.38;;;-9.10;99.90;;;;;;5051409;28;20219;-89
2021/12/27 06:15:08;;;;;;;45.95;22.55;;;-9.10;99.90;;;;;;5049818;28;20220;-90
2021/12/27 06:17:37;;;;;;;36.85;21.00;;;-9.20;99.90;;;;;;5049181;28;20197;-89
2021/12/27 06:20:11;;;;;;;48.92;20.55;;;-9.10;99.90;;;;;;5049751;28;20200;-90
2021/12/27 06:22:41;;;;;;;50.17;22.83;;;-9.20;99.90;;;;;;5049174;28;20239;-89
2021/12/27 06:25:10;;;;;;;37.40;20.42;;;-9.00;99.90;;;;;;5050438;28;20256;-89
2021/12/27 06:27:37;;;;;;;41.28;22.88;;;-9.00;99.90;;;;;;5050165;28;20411;-90
2021/12/27 06:30:08;;;;;;;40.50;23.08;;;-9.10;99.90;;;;;;5050647;28;20263;-90
2021/12/27 06:32:36;;;;;;;54.83;24.08;;;-9.10;99.90;;;;;;5050705;28;20205;-90
2021/12/27 06:35:06;;;;;;;32.83;20.48;;;-9.00;99.90;;;;;;5050522;28;20215;-88
2021/12/27 06:37:33;;;;;;;45.83;20.65;;;-9.20;99.90;;;;;;5049271;28;20557;-89
2021/12/27 06:43:54;;;;;;;38.67;22.23;;;-9.20;99.90;;;;;;4987557;28;20235;-89
2021/12/27 06:46:24;;;;;;;41.88;23.45;;;-9.30;99.90;;;;;;5051151;28;20193;-89
2021/12/27 06:48:56;;;;;;;38.17;20.92;;;-9.30;99.90;;;;;;5033291;28;20193;-89
2021/12/27 06:51:25;;;;;;;45.47;21.08;;;-9.30;99.90;;;;;;5049458;28;20260;-89
2021/12/27 06:53:52;;;;;;;36.70;22.17;;;-9.30;99.90;;;;;;5051242;28;20492;-89
2021/12/27 06:56:19;;;;;;;33.47;20.75;;;-9.20;99.90;;;;;;5049485;28;20267;-89
2021/12/27 06:58:47;;;;;;;48.78;24.70;;;-9.20;99.90;;;;;;5050104;28;20215;-89
2021/12/27 07:01:14;;;;;;;51.92;24.60;;;-9.20;99.90;;;;;;5049906;28;20188;-88
2021/12/27 07:03:42;;;;;;;44.17;22.08;;;-9.10;99.90;;;;;;5050082;28;20255;-90
2021/12/27 07:06:10;;;;;;;40.92;19.17;;;-9.20;99.90;;;;;;5049421;28;20181;-89
2021/12/27 07:08:37;;;;;;;52.28;23.13;;;-9.20;99.90;;;;;;5050968;28;20239;-89
2021/12/27 07:11:06;;;;;;;40.38;21.67;;;-9.10;99.90;;;;;;5050374;28;20279;-89
2021/12/27 07:13:33;;;;;;;37.67;21.55;;;-9.20;99.90;;;;;;5049634;28;20268;-90
2021/12/27 07:16:01;;;;;;;42.15;25.38;;;-9.00;99.90;;;;;;5049540;28;20192;-88
2021/12/27 07:18:28;;;;;;;38.40;23.70;;;-9.00;99.90;;;;;;5048740;28;20203;-88
2021/12/27 07:20:56;;;;;;;39.85;24.58;;;-9.00;99.90;;;;;;5048807;28;20205;-88
2021/12/27 07:23:23;;;;;;;50.38;23.73;;;-8.90;99.90;;;;;;5048750;28;20236;-90
2021/12/27 07:25:51;;;;;;;47.17;23.90;;;-8.80;99.90;;;;;;5048730;28;20259;-89
2021/12/27 07:28:20;;;;;;;57.47;30.33;;;-8.80;99.90;;;;;;5049333;28;20462;-90
2021/12/27 07:30:51;;;;;;;44.67;24.48;;;-8.80;99.90;;;;;;5051047;28;20197;-89
2021/12/27 07:33:18;;;;;;;47.75;26.45;;;-8.80;99.90;;;;;;5049623;28;20331;-89
2021/12/27 07:35:47;;;;;;;42.08;25.35;;;-8.80;99.90;;;;;;5050534;28;20192;-88
2021/12/27 07:38:15;;;;;;;58.67;29.50;;;-8.60;99.90;;;;;;5050268;28;20503;-90
2021/12/27 07:40:43;;;;;;;50.17;26.55;;;-8.60;99.90;;;;;;5033202;28;20193;-89
2021/12/27 07:43:10;;;;;;;50.72;26.75;;;-8.60;99.90;;;;;;5050931;28;20445;-89
2021/12/27 07:45:40;;;;;;;68.20;28.10;;;-8.60;99.90;;;;;;5050616;28;20184;-89
2021/12/27 07:48:09;;;;;;;46.22;24.70;;;-8.60;99.90;;;;;;5051368;28;20251;-89
2021/12/27 07:50:38;;;;;;;50.75;23.50;;;-8.50;99.90;;;;;;5049136;28;20204;-88
2021/12/27 07:53:06;;;;;;;48.08;24.83;;;-8.40;99.90;;;;;;5050624;28;20188;-88
2021/12/27 07:55:34;;;;;;;49.17;26.02;;;-8.40;99.90;;;;;;5048790;28;20330;-89
2021/12/27 07:58:01;;;;;;;57.90;29.55;;;-8.40;99.90;;;;;;5048930;28;20337;-88
2021/12/27 08:00:29;;;;;;;48.92;27.45;;;-8.40;99.90;;;;;;5049975;28;20208;-89
2021/12/27 08:02:57;;;;;;;46.70;28.63;;;-8.30;99.90;;;;;;5050409;28;20546;-88
2021/12/27 08:05:26;;;;;;;70.93;30.98;;;-8.30;99.90;;;;;;5049614;28;20193;-88
2021/12/27 08:07:54;;;;;;;54.47;30.65;;;-8.30;99.90;;;;;;5050908;28;20211;-88
2021/12/27 08:10:21;;;;;;;36.00;24.20;;;-8.30;99.90;;;;;;5050451;28;20208;-89
2021/12/27 08:12:49;;;;;;;50.40;28.13;;;-8.20;99.90;;;;;;5051457;28;20196;-88
2021/12/27 08:15:22;;;;;;;45.35;28.15;;;-8.20;99.90;;;;;;5051991;28;20239;-89
2021/12/27 08:17:50;;;;;;;51.67;30.85;;;-8.10;99.90;;;;;;5051996;28;20547;-90
2021/12/27 08:20:27;;;;;;;51.28;33.00;;;-8.20;99.90;;;;;;5050243;28;20260;-89
2021/12/27 08:22:56;;;;;;;42.17;28.15;;;-8.10;99.90;;;;;;5051423;28;20255;-89
2021/12/27 08:25:24;;;;;;;52.08;28.60;;;-7.90;99.90;;;;;;5047896;28;20388;-89
2021/12/27 08:27:52;;;;;;;48.55;29.33;;;-8.00;99.90;;;;;;5049050;28;20201;-90
2021/12/27 08:30:19;;;;;;;54.72;29.73;;;-7.90;99.90;;;;;;5049309;28;20248;-88
2021/12/27 08:32:47;;;;;;;51.95;29.77;;;-7.80;99.90;;;;;;5070675;22;20580;-43
2021/12/27 08:35:15;;;;;;;48.67;28.60;;;-7.70;99.90;;;;;;5061688;28;20245;-46
2021/12/27 08:37:44;;;;;;;62.17;33.17;;;-7.70;99.90;;;;;;5060354;28;20552;-45
2021/12/27 08:40:12;;;;;;;53.38;32.25;;;-7.60;99.90;;;;;;5060392;28;20253;-45
2021/12/27 08:42:40;;;;;;;62.97;32.75;;;-7.60;99.90;;;;;;5060670;28;20426;-45
2021/12/27 08:45:09;;;;;;;59.10;34.03;;;-7.70;99.90;;;;;;5060802;28;20211;-46
2021/12/27 08:47:37;;;;;;;56.08;32.53;;;-7.60;99.90;;;;;;5061735;22;20263;-47
2021/12/27 08:50:07;;;;;;;55.58;32.40;;;-7.50;99.90;;;;;;5040091;28;20419;-45
2021/12/27 08:52:35;;;;;;;69.72;36.65;;;-7.50;99.90;;;;;;5040400;28;20238;-43
2021/12/27 08:55:03;;;;;;;57.05;34.15;;;-7.50;99.90;;;;;;5040297;28;20236;-51
2021/12/27 08:57:32;;;;;;;73.47;36.35;;;-7.40;99.90;;;;;;5040116;28;20220;-47
2021/12/27 09:00:00;;;;;;;54.78;31.35;;;-7.20;99.90;;;;;;5040906;28;20211;-49
2021/12/27 09:02:28;;;;;;;56.42;33.72;;;-7.20;99.90;;;;;;5040095;28;20338;-44
2021/12/27 09:04:55;;;;;;;60.40;33.88;;;-7.10;99.90;;;;;;5040061;28;20557;-42
2021/12/27 09:07:23;;;;;;;63.38;33.97;;;-7.00;99.90;;;;;;5040067;28;20280;-47
2021/12/27 09:09:50;;;;;;;60.85;33.63;;;-7.00;99.90;;;;;;5040392;28;20196;-44
2021/12/27 09:12:19;;;;;;;51.65;31.05;;;-7.00;99.90;;;;;;5039473;28;20235;-45
2021/12/27 09:14:46;;;;;;;60.85;34.42;;;-6.90;99.90;;;;;;5040104;28;20197;-44
2021/12/27 09:17:14;;;;;;;61.55;32.28;;;-6.80;99.90;;;;;;5039571;28;20216;-49
2021/12/27 09:19:42;;;;;;;45.72;28.73;;;-6.80;99.90;;;;;;5040402;28;20196;-42
2021/12/27 09:22:11;;;;;;;47.83;30.63;;;-6.80;99.90;;;;;;5039843;28;20196;-42
2021/12/27 09:24:38;;;;;;;60.88;28.73;;;-6.80;99.90;;;;;;5040019;28;20440;-43
2021/12/27 09:27:05;;;;;;;60.85;27.85;;;-6.70;99.90;;;;;;5039594;28;20253;-47
2021/12/27 09:29:33;;;;;;;54.00;27.17;;;-6.70;99.90;;;;;;5039904;28;20483;-45
2021/12/27 09:32:00;;;;;;;52.10;28.95;;;-6.70;99.90;;;;;;5041349;28;20202;-46
2021/12/27 09:34:27;;;;;;;46.25;28.52;;;-6.60;99.90;;;;;;5040752;28;20254;-46
2021/12/27 09:36:55;;;;;;;47.25;28.75;;;-6.50;99.90;;;;;;5039323;28;20227;-42
2021/12/27 09:39:22;;;;;;;47.53;26.20;;;-6.40;99.90;;;;;;5039695;28;20246;-43
2021/12/27 09:41:49;;;;;;;47.65;29.38;;;-6.40;99.90;;;;;;5040343;28;20499;-43
2021/12/27 09:44:17;;;;;;;42.33;24.95;;;-6.30;99.90;;;;;;5039501;28;20235;-43
2021/12/27 09:46:49;;;;;;;49.65;29.25;;;-6.30;99.90;;;;;;5039787;28;20350;-41
2021/12/27 09:49:19;;;;;;;47.28;28.88;;;-6.30;99.90;;;;;;5039582;28;20204;-42
2021/12/27 09:51:47;;;;;;;44.20;26.88;;;-6.40;99.90;;;;;;5039835;28;20242;-44
2021/12/27 09:54:14;;;;;;;46.08;27.83;;;-6.40;99.90;;;;;;5039438;28;20506;-51
2021/12/27 09:56:42;;;;;;;37.83;24.67;;;-6.40;99.90;;;;;;5039728;28;20573;-45
2021/12/27 09:59:09;;;;;;;45.05;25.60;;;-6.30;99.90;;;;;;5039208;28;20255;-44
2021/12/27 10:01:36;;;;;;;50.28;27.55;;;-6.20;99.90;;;;;;5039650;28;20208;-44
2021/12/27 10:04:04;;;;;;;49.10;27.05;;;-6.10;99.90;;;;;;5039011;28;20247;-45
2021/12/27 10:06:32;;;;;;;43.53;29.52;;;-6.00;99.90;;;;;;5039606;28;20202;-49
2021/12/27 10:09:02;;;;;;;46.80;28.30;;;-5.80;99.90;;;;;;5039141;28;20192;-48
2021/12/27 10:11:32;;;;;;;44.30;28.00;;;-5.80;99.90;;;;;;5039340;28;20235;-45
2021/12/27 10:14:10;;;;;;;44.72;27.83;;;-5.70;99.90;;;;;;5039507;28;20200;-49
2021/12/27 10:16:44;;;;;;;56.42;29.33;;;-5.70;99.90;;;;;;5038941;28;20281;-46
2021/12/27 10:19:16;;;;;;;42.80;25.60;;;-5.50;99.90;;;;;;5039260;28;20200;-45
2021/12/27 10:21:45;;;;;;;34.60;24.73;;;-5.50;99.90;;;;;;5039370;28;20279;-43
2021/12/27 10:24:18;;;;;;;44.05;25.00;;;-5.50;99.90;;;;;;5041007;28;20224;-43
2021/12/27 10:26:52;;;;;;;43.65;26.85;;;-5.40;99.90;;;;;;5042749;28;20221;-44
2021/12/27 10:29:27;;;;;;;43.53;26.83;;;-5.40;99.90;;;;;;5043135;28;20200;-46
2021/12/27 10:31:58;;;;;;;48.90;28.05;;;-5.30;99.90;;;;;;5043197;28;20197;-46
2021/12/27 10:34:30;;;;;;;38.03;24.85;;;-5.30;99.90;;;;;;5043522;28;20201;-48
2021/12/27 10:36:57;;;;;;;40.10;26.15;;;-5.20;99.90;;;;;;5042683;28;20220;-44
2021/12/27 10:39:40;;;;;;;44.30;28.95;;;-5.20;99.90;;;;;;5043325;28;20208;-43
2021/12/27 10:42:08;;;;;;;42.40;27.75;;;-5.10;99.90;;;;;;5044779;28;20200;-45
2021/12/27 10:44:36;;;;;;;39.58;26.48;;;-5.10;99.90;;;;;;5046230;28;20232;-45
2021/12/27 10:47:32;;;;;;;40.50;27.08;;;-5.00;99.90;;;;;;5045458;28;20224;-46
2021/12/27 10:50:15;;;;;;;44.83;26.17;;;-5.00;99.90;;;;;;5025374;28;20196;-47
2021/12/27 10:52:55;;;;;;;46.45;26.80;;;-4.90;99.90;;;;;;5042145;28;20196;-46
2021/12/27 10:55:38;;;;;;;50.88;28.38;;;-4.90;99.90;;;;;;5042353;28;20201;-45
2021/12/27 10:58:37;;;;;;;47.95;26.70;;;-4.90;99.90;;;;;;5024332;28;20255;-44
2021/12/27 11:01:09;;;;;;;51.30;26.95;;;-4.80;99.90;;;;;;5024826;28;20197;-49
2021/12/27 11:03:43;;;;;;;48.22;27.73;;;-4.80;99.90;;;;;;5041751;28;20219;-45
2021/12/27 11:06:21;;;;;;;50.60;27.42;;;-4.70;99.90;;;;;;5042358;28;20379;-43
2021/12/27 11:08:49;;;;;;;43.75;28.23;;;-4.60;99.90;;;;;;5042068;28;20193;-46
2021/12/27 11:11:19;;;;;;;43.63;27.50;;;-4.60;99.90;;;;;;5042558;28;20246;-44
2021/12/27 11:13:53;;;;;;;44.95;27.17;;;-4.50;99.90;;;;;;5041968;28;20287;-47
2021/12/27 11:16:21;;;;;;;42.65;29.85;;;-4.40;99.90;;;;;;5041768;28;20231;-46
2021/12/27 11:18:50;;;;;;;48.38;26.60;;;-4.40;99.90;;;;;;5041749;28;20214;-45
2021/12/27 11:21:21;;;;;;;45.45;27.38;;;-4.60;99.90;;;;;;5041808;28;20487;-44
2021/12/27 11:23:51;;;;;;;44.80;27.88;;;-4.50;99.90;;;;;;5041623;28;20236;-45
2021/12/27 11:26:32;;;;;;;42.35;28.25;;;-4.40;99.90;;;;;;5041683;28;20255;-43
2021/12/27 11:29:17;;;;;;;48.15;30.08;;;-4.40;99.90;;;;;;5041446;28;20196;-45
2021/12/27 11:31:47;;;;;;;53.55;28.15;;;-4.30;99.90;;;;;;5042129;28;20219;-43
2021/12/27 11:34:16;;;;;;;54.90;31.20;;;-4.20;99.90;;;;;;5041695;28;20462;-50
2021/12/27 11:36:58;;;;;;;47.17;27.23;;;-4.20;99.90;;;;;;5041213;28;20224;-42
2021/12/27 11:39:30;;;;;;;49.90;28.50;;;-4.20;99.90;;;;;;5041494;28;20638;-43
2021/12/27 11:42:18;;;;;;;49.40;31.30;;;-4.20;99.90;;;;;;5041854;28;20242;-44
2021/12/27 11:44:56;;;;;;;47.65;28.60;;;-4.20;99.90;;;;;;5042143;28;20298;-45
2021/12/27 11:47:29;;;;;;;52.25;30.42;;;-4.10;99.90;;;;;;5041791;28;20534;-44
2021/12/27 11:50:02;;;;;;;44.28;28.80;;;-4.00;99.90;;;;;;5041657;28;20196;-43
2021/12/27 11:52:31;;;;;;;49.95;30.15;;;-4.00;99.90;;;;;;5041899;28;20498;-45
2021/12/27 11:55:03;;;;;;;58.00;31.10;;;-3.90;99.90;;;;;;5041301;28;20562;-45
2021/12/27 11:57:39;;;;;;;57.35;29.33;;;-3.90;99.90;;;;;;5041211;28;20220;-45
2021/12/27 12:00:17;;;;;;;49.17;27.90;;;-3.80;99.90;;;;;;5041376;28;20200;-50
2021/12/27 12:02:46;;;;;;;50.88;30.35;;;-3.80;99.90;;;;;;5024122;28;20287;-45
2021/12/27 12:05:44;;;;;;;54.88;33.20;;;-3.70;99.90;;;;;;5040919;28;20220;-44
2021/12/27 12:08:15;;;;;;;50.90;30.55;;;-3.80;99.90;;;;;;5041362;28;20219;-50
2021/12/27 12:11:00;;;;;;;49.83;28.92;;;-3.70;99.90;;;;;;5041501;28;20430;-50
2021/12/27 12:13:39;;;;;;;47.75;33.17;;;-3.70;99.90;;;;;;5026558;28;20406;-46
2021/12/27 12:16:10;;;;;;;55.60;31.98;;;-3.70;99.90;;;;;;5043871;28;20246;-42
2021/12/27 12:19:03;;;;;;;56.05;31.73;;;-3.60;99.90;;;;;;5044127;28;20220;-49
2021/12/27 12:21:33;;;;;;;49.28;30.88;;;-3.60;99.90;;;;;;5040732;28;20201;-49
2021/12/27 12:24:04;;;;;;;50.58;31.42;;;-3.60;99.90;;;;;;5040971;28;20223;-46
2021/12/27 12:26:50;;;;;;;53.80;30.45;;;-3.50;99.90;;;;;;5040040;28;20394;-46
2021/12/27 12:29:35;;;;;;;49.58;31.55;;;-3.40;99.90;;;;;;5040825;28;20219;-45
2021/12/27 12:32:05;;;;;;;63.60;33.35;;;-3.50;99.90;;;;;;5040616;28;20253;-43
2021/12/27 12:34:34;;;;;;;50.75;30.17;;;-3.50;99.90;;;;;;5040555;28;20414;-46
2021/12/27 12:37:06;;;;;;;42.22;28.30;;;-3.40;99.90;;;;;;5040109;28;20608;-43
2021/12/27 12:39:40;;;;;;;50.55;30.95;;;-3.30;99.90;;;;;;5040969;28;20203;-42
2021/12/27 12:42:11;;;;;;;46.55;27.33;;;-3.40;99.90;;;;;;5040265;28;20214;-45
2021/12/27 12:44:54;;;;;;;45.60;28.58;;;-3.30;99.90;;;;;;5040576;28;20212;-46
2021/12/27 12:47:41;;;;;;;45.22;26.60;;;-3.20;99.90;;;;;;5038994;28;20224;-47